Accueil
METAR-TAF:

METAR-TAF

Aéroports :

Aéroport de Bologne-Borgo Panigale

Bologne, Italie

latitude: 44-32N, longitude: 011-18E, altitude: 36 m

Observation

Le bulletin a été fait il y a 13 minutes, à 10:50 UTC
Vent 6 kt de sud/sud-ouest
Température 20°C
Humidité 53%
Pression 1008 hPa
Visibilité 10 km ou plus
Quelques nuages à une hauteur de 3000 ft, Cumulus congestus.
Nuages épars à une hauteur de 5000 ft

METAR: LIPE 141050Z 20006KT 9999 FEW030TCU SCT050 20/10 Q1008

Heure: 13:03 (11:03 UTC)

Prévision

Le bulletin a été fait il y a 6 heures et 3 minutes, à 05:00 UTC
Prévision valable du 14 à 06 UTC au 15 à 06 UTC
Vent 8 kt de sud-ouest
Visibilité 10 km ou plus
Nuages épars à une hauteur de 3000 ft
Nuages fragmentés à une hauteur de 6000 ft
Temporairement
du 14 à 10 UTC au 14 à 18 UTC
orage, pluie

TAF: LIPE 140500Z 1406/1506 22008KT 9999 SCT030 BKN060 TEMPO 1410/1418 TSRA

Observations et prévisions météorologiques de plus de 4000 aéroports (messages METAR et TAF).

Les stations disponibles sont représentées par des disques jaunes et rouges sur la carte.

Passer la souris dessus pour voir le nom de la station.

Cliquer dessus pour voir les observations et prévisions météorologiques.

Pour changer de carte: cliquez sur les boutons verts avec une croix noire pour zoomer, sur le bouton vert avec un tiret pour effectuer un zoom arrière, ou sur les flèches vertes pour les cartes adjacentes.


METAR-TAF: